Time;durP1;ratioP1;P1;durP2;ratioP2;P2;SDS_P1;SDS_P2;PMS_P1;PMS_P2;Temp;Humidity;BMP_temperature;BMP_pressure;BME280_temperature;BME280_humidity;BME280_pressure;Samples;Min_cycle;Max_cycle;Signal;HPM_P1;HPM_P2
2022/06/28 00:01:43;;;;;;;2.23;1.50;;;18.60;99.90;;;;;;5101634;28;20462;-90
2022/06/28 00:04:11;;;;;;;1.37;0.80;;;18.60;99.90;;;;;;5100185;28;20454;-90
2022/06/28 00:06:40;;;;;;;2.40;1.10;;;18.50;99.90;;;;;;5099110;28;20458;-90
2022/06/28 00:12:29;;;;;;;1.50;0.90;;;18.40;99.90;;;;;;5096096;28;21074;-93
2022/06/28 00:17:41;;;;;;;1.43;1.23;;;18.40;99.90;;;;;;5100937;28;20456;-91
2022/06/28 00:20:09;;;;;;;1.00;0.90;;;18.40;99.90;;;;;;5099049;28;20577;-89
2022/06/28 00:22:37;;;;;;;1.87;1.20;;;18.30;99.90;;;;;;5097879;28;21023;-89
2022/06/28 00:25:05;;;;;;;5.33;0.90;;;18.20;99.90;;;;;;5100873;28;20466;-91
2022/06/28 00:27:32;;;;;;;1.07;1.07;;;18.10;99.90;;;;;;5099448;28;21027;-92
2022/06/28 00:29:59;;;;;;;3.03;1.20;;;18.10;99.90;;;;;;5106335;28;20466;-92
2022/06/28 00:32:28;;;;;;;1.70;0.70;;;18.00;99.90;;;;;;5111563;28;20503;-91
2022/06/28 00:34:55;;;;;;;0.80;0.80;;;18.00;99.90;;;;;;5105971;28;20532;-91
2022/06/28 00:37:22;;;;;;;1.00;0.70;;;18.00;99.90;;;;;;5111595;28;20473;-92
2022/06/28 00:39:50;;;;;;;0.70;0.70;;;18.00;99.90;;;;;;5102318;28;20483;-93
2022/06/28 00:42:18;;;;;;;0.70;0.70;;;18.00;99.90;;;;;;5108781;28;20454;-91
2022/06/28 00:44:45;;;;;;;1.10;1.00;;;18.00;99.90;;;;;;5102797;28;20523;-91
2022/06/28 00:47:13;;;;;;;1.07;0.97;;;18.10;99.90;;;;;;5100915;28;20462;-91
2022/06/28 00:49:41;;;;;;;0.63;0.60;;;18.20;99.90;;;;;;5103263;28;20465;-90
2022/06/28 00:52:08;;;;;;;0.60;0.60;;;18.20;99.90;;;;;;5107894;28;20453;-91
2022/06/28 00:54:36;;;;;;;0.80;0.80;;;18.20;99.90;;;;;;5105184;28;20468;-91
2022/06/28 00:57:05;;;;;;;0.60;0.60;;;18.20;99.90;;;;;;5106656;28;20467;-92
2022/06/28 00:59:32;;;;;;;0.70;0.60;;;18.20;99.90;;;;;;5105871;28;20470;-91
2022/06/28 01:02:00;;;;;;;1.57;0.70;;;18.20;99.90;;;;;;5102588;28;20454;-91
2022/06/28 01:04:28;;;;;;;0.73;0.70;;;18.30;99.90;;;;;;5103658;28;20549;-92
2022/06/28 01:06:55;;;;;;;5.13;0.83;;;18.30;99.90;;;;;;5120920;28;20457;-92
2022/06/28 01:09:23;;;;;;;1.23;1.00;;;18.20;99.90;;;;;;5128389;28;20445;-96
2022/06/28 01:11:52;;;;;;;1.50;1.40;;;18.10;99.90;;;;;;5134349;27;20489;-93
2022/06/28 01:14:26;;;;;;;0.57;0.50;;;18.20;99.90;;;;;;5113974;28;20454;-92
2022/06/28 01:16:53;;;;;;;0.70;0.70;;;18.20;99.90;;;;;;5107751;28;20489;-92
2022/06/28 01:19:20;;;;;;;0.70;0.70;;;18.20;99.90;;;;;;5106089;27;20473;-92
2022/06/28 01:21:50;;;;;;;0.73;0.70;;;18.10;99.90;;;;;;5102307;28;20507;-92
2022/06/28 01:24:19;;;;;;;1.37;0.90;;;18.00;99.90;;;;;;5107532;27;20519;-92
2022/06/28 01:26:46;;;;;;;1.10;0.90;;;18.10;99.90;;;;;;5108020;27;20556;-90
2022/06/28 01:29:14;;;;;;;2.30;0.77;;;18.10;99.90;;;;;;5105469;28;20634;-95
2022/06/28 01:31:42;;;;;;;1.17;0.83;;;18.20;99.90;;;;;;5107210;28;20468;-92
2022/06/28 01:34:09;;;;;;;1.53;0.80;;;18.20;99.90;;;;;;5106962;28;20854;-92
2022/06/28 01:36:36;;;;;;;0.93;0.70;;;18.00;99.90;;;;;;5109456;28;20474;-92
2022/06/28 01:39:05;;;;;;;1.23;1.03;;;18.00;99.90;;;;;;5105279;28;20917;-91
2022/06/28 01:41:34;;;;;;;1.03;0.93;;;18.00;99.90;;;;;;5105368;28;21235;-93
2022/06/28 01:44:03;;;;;;;0.80;0.60;;;17.90;99.90;;;;;;5107468;28;20465;-92
2022/06/28 01:46:30;;;;;;;0.70;0.67;;;17.90;99.90;;;;;;5106967;28;20500;-91
2022/06/28 01:48:57;;;;;;;0.97;0.97;;;17.90;99.90;;;;;;5107818;28;20465;-93
2022/06/28 01:51:24;;;;;;;1.83;0.70;;;17.90;99.90;;;;;;5107260;28;20462;-92
2022/06/28 01:53:52;;;;;;;0.70;0.70;;;17.80;99.90;;;;;;5102641;28;20868;-91
2022/06/28 01:56:19;;;;;;;0.70;0.70;;;17.70;99.90;;;;;;5106362;28;20461;-91
2022/06/28 01:58:48;;;;;;;0.97;0.97;;;17.70;99.90;;;;;;5104487;28;20568;-91
2022/06/28 02:01:15;;;;;;;0.77;0.77;;;17.70;99.90;;;;;;5105456;28;20487;-91
2022/06/28 02:03:42;;;;;;;0.70;0.70;;;17.70;99.90;;;;;;5105701;28;20466;-92
2022/06/28 02:06:10;;;;;;;1.30;1.20;;;17.70;99.90;;;;;;5110314;28;20450;-92
2022/06/28 02:08:37;;;;;;;1.33;0.87;;;17.70;99.90;;;;;;5112164;28;20517;-94
2022/06/28 02:11:06;;;;;;;0.97;0.87;;;17.60;99.90;;;;;;5110364;28;20461;-91
2022/06/28 02:13:33;;;;;;;1.50;1.03;;;17.70;99.90;;;;;;5111174;28;20454;-93
2022/06/28 02:16:03;;;;;;;0.73;0.70;;;17.70;99.90;;;;;;5103059;28;20510;-92
2022/06/28 02:18:32;;;;;;;0.90;0.90;;;17.70;99.90;;;;;;5111174;28;20525;-93
2022/06/28 02:20:59;;;;;;;0.80;0.80;;;17.70;99.90;;;;;;5107451;28;20500;-92
2022/06/28 02:23:26;;;;;;;0.60;0.60;;;17.80;99.90;;;;;;5108815;28;20516;-92
2022/06/28 02:25:54;;;;;;;2.20;0.70;;;17.80;99.90;;;;;;5111122;28;20493;-91
2022/06/28 02:28:21;;;;;;;0.90;0.83;;;17.80;99.90;;;;;;5105828;28;20527;-92
2022/06/28 02:30:48;;;;;;;0.70;0.70;;;17.80;99.90;;;;;;5107791;28;20519;-90
2022/06/28 02:33:17;;;;;;;0.60;0.60;;;17.80;99.90;;;;;;5106094;28;20461;-91
2022/06/28 02:41:14;;;;;;;0.80;0.80;;;17.80;99.90;;;;;;5109992;28;20468;-91
2022/06/28 02:43:41;;;;;;;1.07;0.97;;;17.80;99.90;;;;;;5110247;28;20472;-91
2022/06/28 02:46:09;;;;;;;0.83;0.70;;;17.80;99.90;;;;;;5107082;28;20478;-91
2022/06/28 02:48:38;;;;;;;0.60;0.60;;;17.80;99.90;;;;;;5111113;28;20826;-91
2022/06/28 02:51:06;;;;;;;0.87;0.60;;;17.80;99.90;;;;;;5108059;28;20473;-91
2022/06/28 02:53:33;;;;;;;1.27;1.27;;;17.80;99.90;;;;;;5109355;28;20521;-90
2022/06/28 02:56:01;;;;;;;0.70;0.70;;;17.80;99.90;;;;;;5108202;28;20444;-92
2022/06/28 02:58:28;;;;;;;0.80;0.70;;;17.70;99.90;;;;;;5108825;28;20478;-91
2022/06/28 03:00:56;;;;;;;1.00;0.90;;;17.80;99.90;;;;;;5101128;28;20491;-92
2022/06/28 03:03:23;;;;;;;0.90;0.90;;;17.80;99.90;;;;;;5103167;28;21149;-92
2022/06/28 03:05:53;;;;;;;1.60;1.07;;;17.80;99.90;;;;;;5103944;28;20644;-92
2022/06/28 03:08:20;;;;;;;0.80;0.80;;;17.80;99.90;;;;;;5109431;27;20457;-91
2022/06/28 03:10:48;;;;;;;1.30;1.00;;;17.80;99.90;;;;;;5102242;28;20457;-91
2022/06/28 03:13:16;;;;;;;0.70;0.60;;;17.80;99.90;;;;;;5104427;28;20738;-91
2022/06/28 03:15:43;;;;;;;0.70;0.70;;;17.80;99.90;;;;;;5102947;28;20508;-91
2022/06/28 03:18:11;;;;;;;1.17;1.07;;;17.80;99.90;;;;;;5105014;28;20465;-91
2022/06/28 03:20:38;;;;;;;1.10;0.77;;;17.80;99.90;;;;;;5108553;28;21043;-91
2022/06/28 03:23:08;;;;;;;1.10;0.80;;;17.80;99.90;;;;;;5099424;28;20462;-91
2022/06/28 03:25:35;;;;;;;1.67;0.80;;;17.90;99.90;;;;;;5112828;28;20496;-92
2022/06/28 03:28:04;;;;;;;0.80;0.70;;;17.80;99.90;;;;;;5111625;28;20540;-91
2022/06/28 03:30:32;;;;;;;0.90;0.60;;;17.80;99.90;;;;;;5119546;28;20450;-91
2022/06/28 03:32:59;;;;;;;1.27;1.17;;;17.80;99.90;;;;;;5128709;28;20622;-94
2022/06/28 03:35:27;;;;;;;0.80;0.80;;;17.80;99.90;;;;;;5128979;28;20447;-94
2022/06/28 03:37:54;;;;;;;0.87;0.83;;;17.80;99.90;;;;;;5115370;28;20449;-93
2022/06/28 03:40:24;;;;;;;1.60;0.80;;;17.90;99.90;;;;;;5106110;28;20474;-93
2022/06/28 03:42:51;;;;;;;1.07;0.60;;;17.90;99.90;;;;;;5105011;28;20459;-91
2022/06/28 03:45:19;;;;;;;0.73;0.67;;;18.00;99.90;;;;;;5103222;28;20655;-91
2022/06/28 03:47:46;;;;;;;1.13;1.03;;;17.90;99.90;;;;;;5103365;28;20485;-91
2022/06/28 03:50:13;;;;;;;1.50;1.40;;;17.80;99.90;;;;;;5105234;28;20457;-91
2022/06/28 03:52:41;;;;;;;1.93;1.00;;;17.70;99.90;;;;;;5101469;28;20474;-89
2022/06/28 03:55:11;;;;;;;1.20;0.80;;;17.70;99.90;;;;;;5102167;28;20495;-91
2022/06/28 03:57:39;;;;;;;1.20;0.90;;;17.70;99.90;;;;;;5100513;28;20536;-92
2022/06/28 04:00:08;;;;;;;2.03;1.00;;;17.60;99.90;;;;;;5098792;28;20454;-92
2022/06/28 04:02:35;;;;;;;1.23;1.13;;;17.70;99.90;;;;;;5100427;28;20504;-91
2022/06/28 04:05:02;;;;;;;0.70;0.60;;;17.60;99.90;;;;;;5102550;28;20476;-91
2022/06/28 04:07:30;;;;;;;2.70;0.70;;;17.70;99.90;;;;;;5104646;28;20525;-91
2022/06/28 04:09:57;;;;;;;0.90;0.73;;;17.70;99.90;;;;;;5105809;28;20925;-92
2022/06/28 04:12:24;;;;;;;0.70;0.70;;;17.70;99.90;;;;;;5107511;28;20461;-91
2022/06/28 04:14:54;;;;;;;1.00;1.00;;;17.70;99.90;;;;;;5106249;28;20454;-92
2022/06/28 04:17:21;;;;;;;1.03;0.93;;;17.80;99.90;;;;;;5108522;28;20453;-91
2022/06/28 04:19:49;;;;;;;0.97;0.77;;;17.80;99.90;;;;;;5106637;28;20454;-89
2022/06/28 04:22:17;;;;;;;2.23;0.80;;;17.80;99.90;;;;;;5109617;28;20493;-91
2022/06/28 04:24:44;;;;;;;0.80;0.77;;;17.90;99.90;;;;;;5103753;27;20453;-92
2022/06/28 04:27:12;;;;;;;1.10;1.00;;;18.10;99.90;;;;;;5098799;28;20451;-93
2022/06/28 04:29:41;;;;;;;1.13;0.80;;;18.20;99.90;;;;;;5106284;27;20473;-91
2022/06/28 04:32:11;;;;;;;0.80;0.70;;;18.30;99.90;;;;;;5107111;27;20462;-92
2022/06/28 04:34:39;;;;;;;0.90;0.90;;;18.30;99.90;;;;;;5099995;27;20524;-91
2022/06/28 04:37:07;;;;;;;1.30;1.20;;;18.40;99.90;;;;;;5104159;27;20455;-93
2022/06/28 04:39:35;;;;;;;4.00;1.10;;;18.40;99.90;;;;;;5106924;28;20469;-92
2022/06/28 04:42:02;;;;;;;2.97;0.90;;;18.60;99.90;;;;;;5101861;27;20473;-90
2022/06/28 04:44:30;;;;;;;2.47;1.03;;;18.50;99.90;;;;;;5103166;27;20458;-92
2022/06/28 04:46:57;;;;;;;1.40;1.00;;;18.50;99.90;;;;;;5106460;28;20569;-91
2022/06/28 04:49:25;;;;;;;0.83;0.80;;;18.50;99.90;;;;;;5106923;28;20450;-91
2022/06/28 04:51:52;;;;;;;1.57;1.00;;;18.60;99.90;;;;;;5105950;28;20461;-90
2022/06/28 04:54:19;;;;;;;0.90;0.90;;;18.70;99.90;;;;;;5104587;28;20841;-90
2022/06/28 04:56:46;;;;;;;1.70;1.10;;;18.70;99.90;;;;;;5106836;28;20466;-91
2022/06/28 04:59:13;;;;;;;0.83;0.83;;;18.80;99.90;;;;;;5102852;28;20479;-91
2022/06/28 05:01:40;;;;;;;1.03;0.90;;;18.70;99.90;;;;;;5097907;28;20522;-92
2022/06/28 05:04:07;;;;;;;1.90;1.20;;;18.70;99.90;;;;;;5105780;28;20450;-93
2022/06/28 05:06:36;;;;;;;1.17;1.07;;;18.70;99.90;;;;;;5103106;28;20454;-91
2022/06/28 05:09:03;;;;;;;2.60;1.33;;;18.70;99.90;;;;;;5107845;28;20444;-91
2022/06/28 05:11:31;;;;;;;1.13;1.00;;;18.80;99.90;;;;;;5103902;28;21101;-91
2022/06/28 05:13:58;;;;;;;1.57;1.10;;;18.80;99.90;;;;;;5107987;28;20986;-91
2022/06/28 05:16:25;;;;;;;1.43;1.30;;;18.90;99.90;;;;;;5109755;27;21213;-91
2022/06/28 05:18:52;;;;;;;1.43;1.33;;;18.90;99.90;;;;;;5107669;28;20567;-91
2022/06/28 05:21:19;;;;;;;0.90;0.90;;;18.90;99.90;;;;;;5107434;28;21061;-92
2022/06/28 05:23:47;;;;;;;0.80;0.80;;;19.00;99.90;;;;;;5107338;28;21277;-91
2022/06/28 05:26:14;;;;;;;1.80;1.67;;;19.00;99.90;;;;;;5106385;28;20539;-91
2022/06/28 05:28:41;;;;;;;2.20;1.30;;;19.00;99.90;;;;;;5107374;28;20519;-92
2022/06/28 05:31:08;;;;;;;1.47;1.20;;;19.00;99.90;;;;;;5106138;28;20465;-92
2022/06/28 05:33:36;;;;;;;1.47;1.23;;;19.00;99.90;;;;;;5108384;28;20944;-92
2022/06/28 05:36:03;;;;;;;1.53;1.03;;;19.00;99.90;;;;;;5106847;28;20459;-92
2022/06/28 05:38:30;;;;;;;6.27;1.67;;;18.90;99.90;;;;;;5107672;28;20446;-92
2022/06/28 05:40:58;;;;;;;1.87;1.10;;;19.10;99.90;;;;;;5104804;28;20544;-91
2022/06/28 05:43:25;;;;;;;1.53;1.00;;;19.10;99.90;;;;;;5107462;28;20458;-91
2022/06/28 05:45:52;;;;;;;1.50;1.33;;;18.90;99.90;;;;;;5103184;28;20534;-90
2022/06/28 05:48:19;;;;;;;1.17;0.90;;;19.00;99.90;;;;;;5107634;28;20988;-91
2022/06/28 05:50:47;;;;;;;1.23;1.13;;;19.30;99.90;;;;;;5102466;28;20551;-91
2022/06/28 05:53:15;;;;;;;1.20;1.03;;;19.30;99.90;;;;;;5107013;28;20449;-92
2022/06/28 05:55:42;;;;;;;0.93;0.83;;;19.20;99.90;;;;;;5107182;28;20535;-91
2022/06/28 05:58:10;;;;;;;0.87;0.87;;;19.10;99.90;;;;;;5097115;28;20976;-91
2022/06/28 06:00:39;;;;;;;1.17;1.07;;;18.90;99.90;;;;;;5106497;28;21099;-93
2022/06/28 06:03:06;;;;;;;1.03;0.93;;;18.80;99.90;;;;;;5103560;28;20524;-90
2022/06/28 06:05:33;;;;;;;0.93;0.93;;;18.60;99.90;;;;;;5100388;28;20943;-91
2022/06/28 06:08:00;;;;;;;2.60;1.10;;;18.50;99.90;;;;;;5106160;28;20442;-91
2022/06/28 06:10:27;;;;;;;1.10;0.83;;;18.60;99.90;;;;;;5105183;28;20450;-90
2022/06/28 06:12:54;;;;;;;1.13;1.03;;;18.70;99.90;;;;;;5103034;28;20980;-89
2022/06/28 06:15:23;;;;;;;2.00;0.80;;;18.60;99.90;;;;;;5110449;28;20458;-89
2022/06/28 06:17:50;;;;;;;0.83;0.83;;;18.60;99.90;;;;;;5105071;28;20467;-90
2022/06/28 06:20:17;;;;;;;1.30;0.90;;;18.90;99.90;;;;;;5102145;28;20510;-91
2022/06/28 06:22:47;;;;;;;2.70;1.10;;;19.00;99.90;;;;;;5105186;28;20535;-89
2022/06/28 06:25:14;;;;;;;1.23;0.80;;;19.10;99.90;;;;;;5096777;28;20476;-85
2022/06/28 06:27:42;;;;;;;0.80;0.70;;;19.00;99.90;;;;;;5106477;28;20491;-88
2022/06/28 06:30:10;;;;;;;2.00;0.77;;;19.10;99.90;;;;;;5122269;28;20451;-86
2022/06/28 06:32:38;;;;;;;1.03;0.90;;;19.00;99.90;;;;;;5116426;28;20450;-88
2022/06/28 06:35:07;;;;;;;1.00;0.90;;;19.20;99.90;;;;;;5112824;28;20441;-87
2022/06/28 06:37:34;;;;;;;0.80;0.60;;;19.10;99.90;;;;;;5109486;28;20446;-87
2022/06/28 06:40:01;;;;;;;1.13;1.00;;;19.30;99.90;;;;;;5105893;28;20444;-88
2022/06/28 06:42:28;;;;;;;1.13;1.03;;;19.50;99.90;;;;;;5105031;28;20485;-89
2022/06/28 06:44:56;;;;;;;1.00;0.70;;;19.40;99.90;;;;;;5103826;28;20518;-87
2022/06/28 06:47:23;;;;;;;0.90;0.73;;;19.50;99.90;;;;;;5105804;28;20523;-87
2022/06/28 06:49:52;;;;;;;1.03;0.93;;;19.60;99.90;;;;;;5104771;28;20602;-86
2022/06/28 06:52:19;;;;;;;5.60;1.17;;;19.60;99.90;;;;;;5103309;28;20511;-86
2022/06/28 06:54:46;;;;;;;1.53;1.43;;;19.60;99.90;;;;;;5103641;28;20453;-86
2022/06/28 06:57:13;;;;;;;0.90;0.90;;;19.50;99.90;;;;;;5095285;28;20454;-85
2022/06/28 06:59:40;;;;;;;1.20;1.10;;;19.60;99.90;;;;;;5102761;28;20655;-87
2022/06/28 07:02:08;;;;;;;1.83;1.50;;;19.60;99.90;;;;;;5104204;28;20534;-86
2022/06/28 07:04:35;;;;;;;1.00;0.97;;;19.70;99.90;;;;;;5102474;28;20465;-86
2022/06/28 07:07:04;;;;;;;1.10;1.00;;;19.70;99.90;;;;;;5102822;28;20464;-85
2022/06/28 07:09:31;;;;;;;1.30;1.20;;;20.00;99.90;;;;;;5104861;28;20439;-85
2022/06/28 07:11:58;;;;;;;1.10;1.00;;;20.40;99.90;;;;;;5102477;28;21002;-85
2022/06/28 07:14:25;;;;;;;2.13;1.67;;;20.60;99.90;;;;;;5103621;28;20509;-85
2022/06/28 07:16:52;;;;;;;1.50;1.40;;;20.80;99.90;;;;;;5105595;27;20453;-85
2022/06/28 07:19:19;;;;;;;1.37;1.07;;;21.30;99.90;;;;;;5101186;28;20468;-87
2022/06/28 07:21:46;;;;;;;1.40;1.20;;;21.60;99.90;;;;;;5101630;28;20483;-86
2022/06/28 07:24:14;;;;;;;2.30;1.73;;;21.40;99.90;;;;;;5104954;28;20507;-88
2022/06/28 07:26:41;;;;;;;1.60;1.50;;;21.00;99.90;;;;;;5104182;28;20514;-85
2022/06/28 07:29:08;;;;;;;1.40;1.30;;;21.00;99.90;;;;;;5100085;28;20556;-86
2022/06/28 07:31:35;;;;;;;1.33;1.23;;;20.90;99.90;;;;;;5104267;28;20450;-86
2022/06/28 07:34:02;;;;;;;1.57;1.47;;;20.70;99.90;;;;;;5103976;28;20879;-87
2022/06/28 07:36:30;;;;;;;1.17;1.07;;;20.80;99.90;;;;;;5101064;28;20457;-85
2022/06/28 07:38:57;;;;;;;1.27;1.17;;;20.90;99.90;;;;;;5107647;28;20499;-88
2022/06/28 07:41:25;;;;;;;1.33;0.90;;;20.80;99.90;;;;;;5106660;28;21172;-89
2022/06/28 07:43:53;;;;;;;1.20;1.10;;;20.90;99.90;;;;;;5106314;28;20487;-86
2022/06/28 07:46:20;;;;;;;1.37;1.27;;;20.80;99.90;;;;;;5107216;28;21064;-85
2022/06/28 07:48:50;;;;;;;2.90;1.50;;;20.70;99.90;;;;;;5108277;28;20453;-85
2022/06/28 07:54:02;;;;;;;1.30;1.20;;;21.10;99.90;;;;;;5108482;28;20782;-89
2022/06/28 07:56:31;;;;;;;3.03;1.57;;;21.10;99.90;;;;;;5105559;28;20539;-85
2022/06/28 07:58:58;;;;;;;2.53;2.33;;;21.30;99.90;;;;;;5107993;28;20480;-85
2022/06/28 08:01:25;;;;;;;1.73;1.20;;;21.50;99.90;;;;;;5108262;28;20497;-87
2022/06/28 08:03:52;;;;;;;1.67;1.50;;;21.60;99.90;;;;;;5102324;28;20485;-85
2022/06/28 08:06:19;;;;;;;1.27;1.20;;;21.50;99.90;;;;;;5102487;28;20450;-86
2022/06/28 08:08:46;;;;;;;1.53;1.43;;;21.80;99.90;;;;;;5107826;28;20506;-88
2022/06/28 08:11:13;;;;;;;2.43;2.23;;;22.20;99.90;;;;;;5107042;28;20523;-86
2022/06/28 08:13:42;;;;;;;1.43;1.20;;;22.20;99.90;;;;;;5109402;28;20482;-85
2022/06/28 08:16:09;;;;;;;1.20;1.10;;;22.50;99.90;;;;;;5100448;28;20971;-86
2022/06/28 08:18:36;;;;;;;1.00;0.90;;;22.70;99.90;;;;;;5108462;28;20453;-86
2022/06/28 08:21:03;;;;;;;1.93;1.67;;;22.80;99.90;;;;;;5103348;28;20489;-88
2022/06/28 08:23:30;;;;;;;2.00;1.13;;;23.00;99.90;;;;;;5108167;28;20482;-88
2022/06/28 08:25:57;;;;;;;2.37;1.83;;;22.80;99.90;;;;;;5107445;28;20486;-85
2022/06/28 08:28:24;;;;;;;1.43;1.33;;;22.80;99.90;;;;;;5106070;28;21025;-86
2022/06/28 08:30:52;;;;;;;1.57;1.47;;;23.10;99.90;;;;;;5104848;28;20498;-86
2022/06/28 08:33:20;;;;;;;1.57;1.47;;;23.00;99.90;;;;;;5107818;28;21156;-85
2022/06/28 08:35:47;;;;;;;1.43;1.23;;;23.30;99.90;;;;;;5101796;28;20905;-86
2022/06/28 08:38:14;;;;;;;1.87;1.77;;;23.50;99.90;;;;;;5107169;28;20495;-86
2022/06/28 08:40:41;;;;;;;1.23;1.10;;;23.50;99.90;;;;;;5107302;28;20510;-86
2022/06/28 08:43:08;;;;;;;1.23;1.13;;;23.30;99.90;;;;;;5106105;28;20485;-86
2022/06/28 08:45:37;;;;;;;1.07;0.90;;;22.80;99.90;;;;;;5102699;28;20561;-85
2022/06/28 08:48:18;;;;;;;1.30;1.20;;;22.70;99.90;;;;;;5103928;28;21020;-85
2022/06/28 08:50:51;;;;;;;1.93;1.10;;;22.90;99.90;;;;;;5104559;28;20456;-85
2022/06/28 08:53:21;;;;;;;1.83;1.73;;;23.00;99.90;;;;;;5096189;27;20458;-85
2022/06/28 08:55:49;;;;;;;1.80;1.20;;;23.00;99.90;;;;;;5095974;27;20478;-88
2022/06/28 08:58:17;;;;;;;1.97;1.87;;;22.60;99.90;;;;;;5099830;27;20487;-85
2022/06/28 09:00:44;;;;;;;1.57;1.40;;;22.60;99.90;;;;;;5102494;27;20687;-86
2022/06/28 09:03:12;;;;;;;1.50;1.43;;;22.90;99.90;;;;;;5101512;27;20923;-88
2022/06/28 09:05:39;;;;;;;1.30;1.20;;;23.20;99.90;;;;;;5099775;28;20518;-86
2022/06/28 09:08:06;;;;;;;1.20;1.13;;;23.60;99.90;;;;;;5096721;27;20463;-86
2022/06/28 09:10:33;;;;;;;2.07;1.70;;;23.90;99.90;;;;;;5095847;28;20548;-86
2022/06/28 09:13:08;;;;;;;1.60;1.50;;;23.90;99.90;;;;;;5095853;28;21012;-86
2022/06/28 09:15:54;;;;;;;2.00;1.90;;;23.70;99.90;;;;;;5097676;27;20453;-86
2022/06/28 09:18:25;;;;;;;1.53;1.43;;;23.90;99.90;;;;;;5100025;28;20458;-85
2022/06/28 09:20:54;;;;;;;1.33;0.90;;;23.70;99.90;;;;;;5100268;27;21556;-86
2022/06/28 09:23:27;;;;;;;2.03;1.30;;;23.50;99.90;;;;;;5097101;28;20486;-86
2022/06/28 09:25:56;;;;;;;1.00;0.90;;;23.20;99.90;;;;;;5095552;27;20546;-86
2022/06/28 09:28:28;;;;;;;1.90;1.80;;;23.30;99.90;;;;;;5120184;27;20454;-86
2022/06/28 09:31:14;;;;;;;1.70;1.60;;;23.50;99.90;;;;;;5127402;28;20445;-91
2022/06/28 09:33:43;;;;;;;0.83;0.83;;;23.80;99.90;;;;;;5125764;28;20450;-90
2022/06/28 09:36:15;;;;;;;1.53;1.10;;;23.70;99.90;;;;;;5109388;27;20602;-89
2022/06/28 09:38:43;;;;;;;1.10;1.03;;;23.90;99.90;;;;;;5106000;27;20463;-90
2022/06/28 09:41:21;;;;;;;1.47;1.37;;;23.80;99.90;;;;;;5102848;28;20553;-90
2022/06/28 09:43:55;;;;;;;2.17;1.97;;;24.20;99.90;;;;;;5101809;28;20963;-90
2022/06/28 09:46:26;;;;;;;1.37;1.30;;;24.40;99.90;;;;;;5102765;28;20456;-89
2022/06/28 09:48:57;;;;;;;1.30;1.00;;;24.00;99.90;;;;;;5100760;28;20611;-90
2022/06/28 09:51:26;;;;;;;1.60;1.50;;;23.50;99.90;;;;;;5109638;27;20560;-90
2022/06/28 09:53:55;;;;;;;1.40;1.30;;;24.00;99.90;;;;;;5105647;28;20442;-92
2022/06/28 09:56:24;;;;;;;1.17;1.10;;;24.40;99.90;;;;;;5097493;28;20464;-89
2022/06/28 09:58:53;;;;;;;1.97;1.87;;;24.10;99.90;;;;;;5098794;27;20937;-94
2022/06/28 10:01:20;;;;;;;1.23;1.23;;;24.30;99.90;;;;;;5099821;28;20996;-89
2022/06/28 10:03:49;;;;;;;1.13;1.03;;;23.90;99.90;;;;;;5100217;28;20482;-89
2022/06/28 10:06:21;;;;;;;3.80;1.43;;;24.10;99.90;;;;;;5100551;28;20469;-89
2022/06/28 10:08:50;;;;;;;1.27;1.17;;;24.10;99.90;;;;;;5092717;27;20465;-90
2022/06/28 10:11:18;;;;;;;1.70;1.60;;;23.90;99.90;;;;;;5090272;28;20466;-89
2022/06/28 10:16:46;;;;;;;1.50;1.40;;;24.20;99.90;;;;;;5099379;27;21204;-89
2022/06/28 10:19:14;;;;;;;1.30;1.23;;;24.70;99.90;;;;;;5102485;28;20457;-90
2022/06/28 10:22:10;;;;;;;1.67;1.30;;;24.70;99.90;;;;;;5078069;28;20497;-89
2022/06/28 10:24:57;;;;;;;1.17;1.07;;;24.80;99.90;;;;;;5076330;28;20493;-90
2022/06/28 10:27:24;;;;;;;0.90;0.80;;;25.20;99.90;;;;;;5082639;28;20466;-89
2022/06/28 10:30:24;;;;;;;0.80;0.80;;;25.00;99.90;;;;;;5081657;28;20520;-89
2022/06/28 10:32:55;;;;;;;3.23;1.40;;;25.10;99.60;;;;;;5069178;28;20463;-90
2022/06/28 10:35:54;;;;;;;0.90;0.90;;;25.10;99.90;;;;;;5074956;28;20451;-89
2022/06/28 10:38:23;;;;;;;1.40;1.30;;;24.60;99.90;;;;;;5074557;28;20469;-89
2022/06/28 10:40:50;;;;;;;0.80;0.80;;;24.90;99.90;;;;;;5070475;28;20455;-90
2022/06/28 10:43:47;;;;;;;0.70;0.70;;;24.80;99.90;;;;;;5072905;28;20487;-87
2022/06/28 10:46:15;;;;;;;0.80;0.80;;;24.60;99.90;;;;;;5077833;28;20619;-87
2022/06/28 10:49:11;;;;;;;0.80;0.80;;;24.90;99.30;;;;;;5068859;28;20498;-89
2022/06/28 10:52:02;;;;;;;0.80;0.80;;;25.00;99.40;;;;;;5078694;28;21013;-89
2022/06/28 10:54:31;;;;;;;1.10;0.90;;;24.80;97.80;;;;;;5079412;28;20451;-89
2022/06/28 10:57:00;;;;;;;0.87;0.87;;;24.40;99.70;;;;;;5073245;28;20465;-89
2022/06/28 10:59:36;;;;;;;0.80;0.80;;;24.60;99.60;;;;;;5070227;28;20463;-89
2022/06/28 11:02:03;;;;;;;1.07;0.97;;;24.80;98.40;;;;;;5076410;28;20545;-90
2022/06/28 11:04:32;;;;;;;0.90;0.90;;;25.00;99.80;;;;;;5074686;28;21004;-89
2022/06/28 11:07:05;;;;;;;1.10;1.10;;;25.00;98.90;;;;;;5082822;28;20540;-87
2022/06/28 11:09:53;;;;;;;0.80;0.80;;;25.30;98.10;;;;;;5083591;28;20551;-89
2022/06/28 11:12:22;;;;;;;1.00;0.90;;;25.50;97.60;;;;;;5078352;28;21031;-89
2022/06/28 11:14:54;;;;;;;1.60;1.07;;;25.60;98.40;;;;;;5085656;28;20537;-90
2022/06/28 11:17:24;;;;;;;2.10;0.83;;;25.40;99.30;;;;;;5079903;28;20457;-89
2022/06/28 11:19:54;;;;;;;0.70;0.70;;;25.20;95.70;;;;;;5077826;28;20454;-89
2022/06/28 11:22:23;;;;;;;1.07;0.90;;;25.60;96.80;;;;;;5096551;28;20813;-89
2022/06/28 11:24:52;;;;;;;0.70;0.70;;;25.00;99.20;;;;;;5099337;27;20499;-89
2022/06/28 11:27:21;;;;;;;0.60;0.60;;;25.30;98.30;;;;;;5085246;28;20509;-89
2022/06/28 11:29:52;;;;;;;1.03;0.90;;;25.60;99.20;;;;;;5094955;28;20462;-89
2022/06/28 11:32:21;;;;;;;1.93;0.60;;;25.60;99.90;;;;;;5095652;28;20462;-89
2022/06/28 11:34:56;;;;;;;1.00;1.00;;;25.30;96.90;;;;;;5095297;28;20945;-89
2022/06/28 11:37:23;;;;;;;0.90;0.70;;;25.30;96.70;;;;;;5099942;28;20522;-89
2022/06/28 11:39:54;;;;;;;0.77;0.77;;;25.40;97.30;;;;;;5098320;28;20577;-89
2022/06/28 11:42:21;;;;;;;0.67;0.67;;;25.60;96.20;;;;;;5100053;28;20999;-89
2022/06/28 11:44:50;;;;;;;0.63;0.60;;;25.80;96.70;;;;;;5101974;28;20542;-89
2022/06/28 11:47:18;;;;;;;0.80;0.80;;;25.90;95.10;;;;;;5099192;28;20489;-89
2022/06/28 11:49:52;;;;;;;0.83;0.83;;;25.90;95.50;;;;;;5103664;28;20537;-89
2022/06/28 11:52:19;;;;;;;0.90;0.90;;;25.70;96.50;;;;;;5100601;28;20906;-89
2022/06/28 11:54:56;;;;;;;0.90;0.90;;;25.70;95.30;;;;;;5100723;28;20512;-89
2022/06/28 11:57:23;;;;;;;0.93;0.93;;;25.60;95.70;;;;;;5100010;28;20608;-91
2022/06/28 12:00:01;;;;;;;0.70;0.60;;;25.70;96.00;;;;;;5098192;28;20519;-87
2022/06/28 12:02:51;;;;;;;0.87;0.87;;;26.10;96.80;;;;;;5098577;28;20542;-89
2022/06/28 12:05:30;;;;;;;0.70;0.70;;;26.20;94.60;;;;;;5096931;28;20491;-89
2022/06/28 12:07:58;;;;;;;0.63;0.63;;;26.30;94.60;;;;;;5095990;28;21059;-88
2022/06/28 12:10:29;;;;;;;0.70;0.70;;;26.30;95.00;;;;;;5100759;28;20498;-87
2022/06/28 12:12:57;;;;;;;0.93;0.93;;;26.30;94.30;;;;;;5098270;28;20549;-87
2022/06/28 12:15:26;;;;;;;0.93;0.93;;;25.50;94.10;;;;;;5104179;28;20462;-87
2022/06/28 12:17:56;;;;;;;0.70;0.70;;;25.40;97.40;;;;;;5097589;28;20497;-87
2022/06/28 12:20:23;;;;;;;0.83;0.77;;;25.90;98.00;;;;;;5100135;28;20550;-87
2022/06/28 12:22:58;;;;;;;0.70;0.63;;;26.30;94.80;;;;;;5094819;28;20956;-87
2022/06/28 12:25:27;;;;;;;0.97;0.80;;;26.20;94.50;;;;;;5112332;28;20536;-87
2022/06/28 12:27:54;;;;;;;0.70;0.70;;;26.60;97.10;;;;;;5123475;28;20576;-89
2022/06/28 12:30:22;;;;;;;0.70;0.70;;;26.80;94.90;;;;;;5117699;27;20462;-87
2022/06/28 12:32:52;;;;;;;0.70;0.70;;;26.90;95.40;;;;;;5113751;27;20458;-87
2022/06/28 12:35:20;;;;;;;0.93;0.77;;;27.00;95.00;;;;;;5097762;27;20547;-87
2022/06/28 12:37:48;;;;;;;0.80;0.70;;;27.00;94.10;;;;;;5096132;28;20470;-87
2022/06/28 12:40:16;;;;;;;1.00;1.00;;;26.30;93.40;;;;;;5101723;28;20545;-87
2022/06/28 12:42:44;;;;;;;0.67;0.63;;;26.60;95.50;;;;;;5103503;27;21069;-87
2022/06/28 12:45:12;;;;;;;0.80;0.80;;;27.00;91.60;;;;;;5102975;28;21203;-86
2022/06/28 12:47:41;;;;;;;0.80;0.80;;;27.60;92.70;;;;;;5104396;28;20527;-90
2022/06/28 12:50:13;;;;;;;0.63;0.63;;;27.70;91.70;;;;;;5106314;28;20525;-88
2022/06/28 12:52:41;;;;;;;1.47;0.90;;;27.70;95.30;;;;;;5094539;28;20976;-89
2022/06/28 12:55:10;;;;;;;3.00;0.97;;;27.70;92.20;;;;;;5106840;28;20446;-90
2022/06/28 12:57:38;;;;;;;0.70;0.70;;;27.50;92.90;;;;;;5106380;28;20450;-89
2022/06/28 13:00:10;;;;;;;3.23;2.93;;;27.70;92.20;;;;;;5106718;28;20511;-89
2022/06/28 13:02:37;;;;;;;0.77;0.77;;;27.40;92.70;;;;;;5106311;28;20462;-90
2022/06/28 13:05:05;;;;;;;1.03;0.60;;;27.40;91.80;;;;;;5102689;28;20490;-89
2022/06/28 13:07:32;;;;;;;0.90;0.80;;;27.50;90.90;;;;;;5107355;28;20932;-89
2022/06/28 13:09:59;;;;;;;0.60;0.60;;;27.80;92.20;;;;;;5107226;28;20503;-90
2022/06/28 13:12:26;;;;;;;0.80;0.70;;;28.20;91.80;;;;;;5104979;28;20524;-89
2022/06/28 13:14:53;;;;;;;1.00;0.90;;;28.10;90.90;;;;;;5104295;28;20519;-89